sensor_id;sensor_type;location;lat;lon;timestamp;P1;durP1;ratioP1;P2;durP2;ratioP2
71360;SDS011;59166;48.908;1.870;2022-07-17T00:05:00;6.20;;;2.33;;
71360;SDS011;59166;48.908;1.870;2022-07-17T00:15:02;6.73;;;2.37;;
71360;SDS011;59166;48.908;1.870;2022-07-17T00:25:04;9.67;;;2.63;;
71360;SDS011;59166;48.908;1.870;2022-07-17T00:35:07;7.07;;;2.60;;
71360;SDS011;59166;48.908;1.870;2022-07-17T00:45:09;7.22;;;2.67;;
71360;SDS011;59166;48.908;1.870;2022-07-17T00:55:13;7.10;;;2.40;;
71360;SDS011;59166;48.908;1.870;2022-07-17T01:05:13;8.20;;;2.60;;
71360;SDS011;59166;48.908;1.870;2022-07-17T01:15:16;7.57;;;2.30;;
71360;SDS011;59166;48.908;1.870;2022-07-17T01:25:20;5.90;;;2.10;;
71360;SDS011;59166;48.908;1.870;2022-07-17T01:35:22;6.65;;;2.30;;
71360;SDS011;59166;48.908;1.870;2022-07-17T01:45:24;7.27;;;2.70;;
71360;SDS011;59166;48.908;1.870;2022-07-17T01:55:25;7.03;;;2.30;;
71360;SDS011;59166;48.908;1.870;2022-07-17T02:05:27;7.07;;;2.40;;
71360;SDS011;59166;48.908;1.870;2022-07-17T02:15:28;6.28;;;2.35;;
71360;SDS011;59166;48.908;1.870;2022-07-17T02:25:31;6.60;;;2.30;;
71360;SDS011;59166;48.908;1.870;2022-07-17T02:35:32;7.45;;;2.38;;
71360;SDS011;59166;48.908;1.870;2022-07-17T02:45:35;7.37;;;2.60;;
71360;SDS011;59166;48.908;1.870;2022-07-17T02:55:35;6.97;;;2.23;;
71360;SDS011;59166;48.908;1.870;2022-07-17T03:05:37;7.83;;;2.33;;
71360;SDS011;59166;48.908;1.870;2022-07-17T03:15:38;6.78;;;2.42;;
71360;SDS011;59166;48.908;1.870;2022-07-17T03:25:40;8.27;;;1.90;;
71360;SDS011;59166;48.908;1.870;2022-07-17T03:35:41;7.17;;;2.30;;
71360;SDS011;59166;48.908;1.870;2022-07-17T03:45:43;7.43;;;2.40;;
71360;SDS011;59166;48.908;1.870;2022-07-17T03:55:44;5.73;;;2.10;;
71360;SDS011;59166;48.908;1.870;2022-07-17T04:05:46;5.97;;;2.07;;
71360;SDS011;59166;48.908;1.870;2022-07-17T04:15:47;7.80;;;2.20;;
71360;SDS011;59166;48.908;1.870;2022-07-17T04:25:49;7.87;;;2.17;;
71360;SDS011;59166;48.908;1.870;2022-07-17T04:35:50;6.53;;;2.40;;
71360;SDS011;59166;48.908;1.870;2022-07-17T04:45:52;7.43;;;2.20;;
71360;SDS011;59166;48.908;1.870;2022-07-17T04:55:52;7.70;;;2.25;;
71360;SDS011;59166;48.908;1.870;2022-07-17T05:05:54;6.37;;;2.33;;
71360;SDS011;59166;48.908;1.870;2022-07-17T05:15:55;8.03;;;2.30;;
71360;SDS011;59166;48.908;1.870;2022-07-17T05:25:57;7.10;;;2.00;;
71360;SDS011;59166;48.908;1.870;2022-07-17T05:35:58;8.15;;;2.00;;
71360;SDS011;59166;48.908;1.870;2022-07-17T05:46:00;5.80;;;2.10;;
71360;SDS011;59166;48.908;1.870;2022-07-17T05:56:01;8.37;;;2.40;;
71360;SDS011;59166;48.908;1.870;2022-07-17T06:06:03;6.23;;;2.20;;
71360;SDS011;59166;48.908;1.870;2022-07-17T06:16:04;8.02;;;2.42;;
71360;SDS011;59166;48.908;1.870;2022-07-17T06:26:06;6.77;;;1.97;;
71360;SDS011;59166;48.908;1.870;2022-07-17T06:36:07;7.80;;;2.30;;
71360;SDS011;59166;48.908;1.870;2022-07-17T06:46:09;6.78;;;2.15;;
71360;SDS011;59166;48.908;1.870;2022-07-17T06:56:10;7.20;;;2.20;;
71360;SDS011;59166;48.908;1.870;2022-07-17T07:06:12;8.00;;;1.90;;
71360;SDS011;59166;48.908;1.870;2022-07-17T07:16:13;6.75;;;2.15;;
71360;SDS011;59166;48.908;1.870;2022-07-17T07:26:15;5.80;;;1.97;;
71360;SDS011;59166;48.908;1.870;2022-07-17T07:36:16;6.80;;;2.13;;
71360;SDS011;59166;48.908;1.870;2022-07-17T07:46:18;6.50;;;2.07;;
71360;SDS011;59166;48.908;1.870;2022-07-17T07:56:19;6.47;;;2.30;;
71360;SDS011;59166;48.908;1.870;2022-07-17T08:06:21;6.00;;;2.10;;
71360;SDS011;59166;48.908;1.870;2022-07-17T08:16:22;6.00;;;2.10;;
71360;SDS011;59166;48.908;1.870;2022-07-17T08:26:24;6.80;;;2.17;;
71360;SDS011;59166;48.908;1.870;2022-07-17T08:36:25;6.88;;;2.30;;
71360;SDS011;59166;48.908;1.870;2022-07-17T08:46:27;5.60;;;1.80;;
71360;SDS011;59166;48.908;1.870;2022-07-17T08:56:28;8.63;;;2.20;;
71360;SDS011;59166;48.908;1.870;2022-07-17T09:06:30;7.57;;;2.10;;
71360;SDS011;59166;48.908;1.870;2022-07-17T09:16:34;7.50;;;2.10;;
71360;SDS011;59166;48.908;1.870;2022-07-17T09:26:42;5.70;;;2.10;;
71360;SDS011;59166;48.908;1.870;2022-07-17T09:36:44;6.20;;;2.10;;
71360;SDS011;59166;48.908;1.870;2022-07-17T09:46:46;5.93;;;2.00;;
71360;SDS011;59166;48.908;1.870;2022-07-17T09:56:47;6.60;;;2.00;;
71360;SDS011;59166;48.908;1.870;2022-07-17T10:06:52;5.93;;;2.10;;
71360;SDS011;59166;48.908;1.870;2022-07-17T10:16:53;6.70;;;2.03;;
71360;SDS011;59166;48.908;1.870;2022-07-17T10:26:55;8.20;;;2.33;;
71360;SDS011;59166;48.908;1.870;2022-07-17T10:36:57;5.20;;;1.83;;
71360;SDS011;59166;48.908;1.870;2022-07-17T10:47:00;6.83;;;2.20;;
71360;SDS011;59166;48.908;1.870;2022-07-17T10:57:00;5.68;;;2.20;;
71360;SDS011;59166;48.908;1.870;2022-07-17T11:07:07;5.43;;;2.10;;
71360;SDS011;59166;48.908;1.870;2022-07-17T11:17:07;6.60;;;2.10;;
71360;SDS011;59166;48.908;1.870;2022-07-17T11:27:11;5.00;;;1.80;;
71360;SDS011;59166;48.908;1.870;2022-07-17T11:37:12;6.38;;;1.98;;
71360;SDS011;59166;48.908;1.870;2022-07-17T11:47:19;5.33;;;1.90;;
71360;SDS011;59166;48.908;1.870;2022-07-17T11:57:21;5.63;;;2.10;;
71360;SDS011;59166;48.908;1.870;2022-07-17T12:07:25;5.70;;;1.87;;
71360;SDS011;59166;48.908;1.870;2022-07-17T12:17:38;5.87;;;2.00;;
71360;SDS011;59166;48.908;1.870;2022-07-17T12:27:41;6.70;;;1.85;;
71360;SDS011;59166;48.908;1.870;2022-07-17T12:37:42;4.37;;;1.80;;
71360;SDS011;59166;48.908;1.870;2022-07-17T12:47:44;7.13;;;2.08;;
71360;SDS011;59166;48.908;1.870;2022-07-17T12:57:45;4.70;;;1.70;;
71360;SDS011;59166;48.908;1.870;2022-07-17T13:07:47;6.80;;;1.90;;
71360;SDS011;59166;48.908;1.870;2022-07-17T13:17:48;6.00;;;1.90;;
71360;SDS011;59166;48.908;1.870;2022-07-17T13:27:50;5.20;;;1.87;;
71360;SDS011;59166;48.908;1.870;2022-07-17T13:37:51;4.93;;;2.13;;
71360;SDS011;59166;48.908;1.870;2022-07-17T13:47:53;5.67;;;1.90;;
71360;SDS011;59166;48.908;1.870;2022-07-17T13:57:54;5.85;;;2.00;;
71360;SDS011;59166;48.908;1.870;2022-07-17T14:07:56;4.50;;;1.90;;
71360;SDS011;59166;48.908;1.870;2022-07-17T14:17:57;5.80;;;1.83;;
71360;SDS011;59166;48.908;1.870;2022-07-17T14:27:59;6.03;;;2.03;;
71360;SDS011;59166;48.908;1.870;2022-07-17T14:38:00;5.93;;;1.90;;
71360;SDS011;59166;48.908;1.870;2022-07-17T14:48:02;4.90;;;1.90;;
71360;SDS011;59166;48.908;1.870;2022-07-17T14:58:03;5.50;;;2.20;;
71360;SDS011;59166;48.908;1.870;2022-07-17T15:08:05;5.40;;;2.00;;
71360;SDS011;59166;48.908;1.870;2022-07-17T15:18:06;5.32;;;2.25;;
71360;SDS011;59166;48.908;1.870;2022-07-17T15:28:08;5.67;;;2.20;;
71360;SDS011;59166;48.908;1.870;2022-07-17T15:38:09;4.97;;;1.90;;
71360;SDS011;59166;48.908;1.870;2022-07-17T15:48:11;7.43;;;2.10;;
71360;SDS011;59166;48.908;1.870;2022-07-17T15:58:12;4.90;;;1.90;;
71360;SDS011;59166;48.908;1.870;2022-07-17T16:08:14;5.90;;;2.17;;
71360;SDS011;59166;48.908;1.870;2022-07-17T16:18:14;5.03;;;2.10;;
71360;SDS011;59166;48.908;1.870;2022-07-17T16:28:16;6.53;;;2.37;;
71360;SDS011;59166;48.908;1.870;2022-07-17T16:38:17;6.47;;;2.60;;
71360;SDS011;59166;48.908;1.870;2022-07-17T16:48:19;8.07;;;2.70;;
71360;SDS011;59166;48.908;1.870;2022-07-17T16:58:20;7.95;;;2.60;;
71360;SDS011;59166;48.908;1.870;2022-07-17T17:08:22;5.47;;;2.33;;
71360;SDS011;59166;48.908;1.870;2022-07-17T17:18:23;4.63;;;1.87;;
71360;SDS011;59166;48.908;1.870;2022-07-17T17:28:25;10.17;;;2.27;;
71360;SDS011;59166;48.908;1.870;2022-07-17T17:38:26;6.78;;;2.20;;
71360;SDS011;59166;48.908;1.870;2022-07-17T17:48:35;5.03;;;2.00;;
71360;SDS011;59166;48.908;1.870;2022-07-17T17:58:35;5.72;;;1.83;;
71360;SDS011;59166;48.908;1.870;2022-07-17T18:08:37;5.53;;;2.10;;
71360;SDS011;59166;48.908;1.870;2022-07-17T18:18:38;6.43;;;1.93;;
71360;SDS011;59166;48.908;1.870;2022-07-17T18:28:40;5.30;;;1.77;;
71360;SDS011;59166;48.908;1.870;2022-07-17T18:38:41;5.82;;;1.90;;
71360;SDS011;59166;48.908;1.870;2022-07-17T18:48:43;5.27;;;1.80;;
71360;SDS011;59166;48.908;1.870;2022-07-17T18:58:43;6.07;;;1.73;;
71360;SDS011;59166;48.908;1.870;2022-07-17T19:08:46;7.47;;;2.10;;
71360;SDS011;59166;48.908;1.870;2022-07-17T19:18:46;5.83;;;2.03;;
71360;SDS011;59166;48.908;1.870;2022-07-17T19:28:48;8.63;;;2.10;;
71360;SDS011;59166;48.908;1.870;2022-07-17T19:38:49;7.47;;;2.10;;
71360;SDS011;59166;48.908;1.870;2022-07-17T19:48:51;10.15;;;2.30;;
71360;SDS011;59166;48.908;1.870;2022-07-17T19:58:52;7.53;;;2.00;;
71360;SDS011;59166;48.908;1.870;2022-07-17T20:08:54;7.72;;;2.00;;
71360;SDS011;59166;48.908;1.870;2022-07-17T20:18:55;9.03;;;2.30;;
71360;SDS011;59166;48.908;1.870;2022-07-17T20:28:58;9.47;;;2.17;;
71360;SDS011;59166;48.908;1.870;2022-07-17T20:38:58;6.35;;;2.20;;
71360;SDS011;59166;48.908;1.870;2022-07-17T20:49:00;8.63;;;2.20;;
71360;SDS011;59166;48.908;1.870;2022-07-17T20:59:02;8.93;;;2.53;;
71360;SDS011;59166;48.908;1.870;2022-07-17T21:09:04;7.13;;;2.67;;
71360;SDS011;59166;48.908;1.870;2022-07-17T21:19:05;9.60;;;2.50;;
71360;SDS011;59166;48.908;1.870;2022-07-17T21:29:07;10.50;;;2.53;;
71360;SDS011;59166;48.908;1.870;2022-07-17T21:39:08;7.23;;;2.37;;
71360;SDS011;59166;48.908;1.870;2022-07-17T21:49:10;7.30;;;2.60;;
71360;SDS011;59166;48.908;1.870;2022-07-17T21:59:11;7.70;;;2.60;;
71360;SDS011;59166;48.908;1.870;2022-07-17T22:09:13;5.87;;;2.30;;
71360;SDS011;59166;48.908;1.870;2022-07-17T22:19:14;7.60;;;2.40;;
71360;SDS011;59166;48.908;1.870;2022-07-17T22:29:17;6.47;;;2.20;;
71360;SDS011;59166;48.908;1.870;2022-07-17T22:39:18;6.67;;;2.40;;
71360;SDS011;59166;48.908;1.870;2022-07-17T22:49:21;8.87;;;2.57;;
71360;SDS011;59166;48.908;1.870;2022-07-17T22:59:21;6.00;;;2.35;;
71360;SDS011;59166;48.908;1.870;2022-07-17T23:09:24;6.87;;;2.67;;
71360;SDS011;59166;48.908;1.870;2022-07-17T23:19:25;7.07;;;2.50;;
71360;SDS011;59166;48.908;1.870;2022-07-17T23:29:27;6.87;;;2.40;;
71360;SDS011;59166;48.908;1.870;2022-07-17T23:39:27;7.22;;;2.50;;
71360;SDS011;59166;48.908;1.870;2022-07-17T23:49:29;9.77;;;2.80;;
71360;SDS011;59166;48.908;1.870;2022-07-17T23:59:30;8.73;;;3.20;;
